Time;durP1;ratioP1;P1;durP2;ratioP2;P2;SDS_P1;SDS_P2;PMS_P1;PMS_P2;Temp;Humidity;BMP_temperature;BMP_pressure;BME280_temperature;BME280_humidity;BME280_pressure;Samples;Min_cycle;Max_cycle;Signal;HPM_P1;HPM_P2
2023/12/05 00:00:20;;;;;;;19.17;11.82;;;1.30;99.90;;;;;;5069066;28;20487;-81
2023/12/05 00:02:46;;;;;;;19.67;11.73;;;1.30;99.90;;;;;;5067502;28;20446;-81
2023/12/05 00:05:11;;;;;;;18.73;11.20;;;1.40;99.90;;;;;;5065666;28;20516;-79
2023/12/05 00:07:38;;;;;;;22.17;12.73;;;1.30;99.90;;;;;;5066672;28;20399;-82
2023/12/05 00:10:05;;;;;;;19.40;11.90;;;1.60;99.90;;;;;;5070498;28;20053;-80
2023/12/05 00:12:30;;;;;;;21.15;12.68;;;1.30;99.90;;;;;;5065505;28;20506;-82
2023/12/05 00:14:56;;;;;;;21.50;12.32;;;1.30;99.90;;;;;;5050844;28;20138;-82
2023/12/05 00:17:22;;;;;;;19.77;12.70;;;2.40;99.90;;;;;;5050908;28;20099;-80
2023/12/05 00:19:47;;;;;;;20.50;12.45;;;1.30;99.90;;;;;;5070344;28;20403;-81
2023/12/05 00:22:13;;;;;;;21.13;14.10;;;1.30;99.90;;;;;;5066358;28;20087;-81
2023/12/05 00:24:39;;;;;;;23.42;13.30;;;1.30;99.90;;;;;;5070447;28;20048;-81
2023/12/05 00:27:04;;;;;;;21.20;13.57;;;1.30;99.90;;;;;;5067768;28;20377;-81
2023/12/05 00:29:30;;;;;;;21.20;13.55;;;1.30;99.90;;;;;;5051049;28;20060;-81
2023/12/05 00:31:56;;;;;;;26.52;15.00;;;1.30;99.90;;;;;;5061672;28;20048;-81
2023/12/05 00:34:21;;;;;;;22.42;14.70;;;1.30;99.90;;;;;;5061411;28;20099;-80
2023/12/05 00:36:48;;;;;;;22.80;14.25;;;1.30;99.90;;;;;;5068809;28;20048;-81
2023/12/05 00:39:14;;;;;;;22.20;14.30;;;1.30;99.90;;;;;;5069892;28;20060;-81
2023/12/05 00:41:40;;;;;;;24.45;15.05;;;1.30;99.90;;;;;;5067557;28;20040;-81
2023/12/05 00:44:05;;;;;;;21.92;13.75;;;1.40;99.90;;;;;;5057835;28;20048;-81
2023/12/05 00:46:31;;;;;;;23.05;14.10;;;1.30;99.90;;;;;;5050339;28;20033;-80
2023/12/05 00:48:57;;;;;;;24.58;15.48;;;1.30;99.90;;;;;;5049699;28;20053;-81
2023/12/05 00:51:22;;;;;;;22.40;13.88;;;1.30;99.90;;;;;;5054957;28;20040;-81
2023/12/05 00:53:48;;;;;;;27.65;16.48;;;1.30;99.90;;;;;;5067046;28;20071;-81
2023/12/05 00:56:14;;;;;;;24.10;15.07;;;1.30;99.90;;;;;;5069006;28;20045;-80
2023/12/05 00:58:40;;;;;;;37.10;15.23;;;1.30;99.90;;;;;;5069652;28;20067;-80
2023/12/05 01:01:07;;;;;;;24.77;16.08;;;1.20;99.90;;;;;;5069686;28;20131;-81
2023/12/05 01:03:33;;;;;;;22.83;14.48;;;1.30;99.90;;;;;;5065181;28;20101;-81
2023/12/05 01:05:59;;;;;;;25.50;16.13;;;1.30;99.90;;;;;;5068105;28;20036;-81
2023/12/05 01:08:24;;;;;;;26.92;15.32;;;1.60;99.90;;;;;;5052076;28;20055;-80
2023/12/05 01:10:50;;;;;;;24.48;15.15;;;1.20;99.90;;;;;;5048924;28;20047;-81
2023/12/05 01:13:15;;;;;;;24.00;14.48;;;1.20;99.90;;;;;;5049363;28;20053;-81
2023/12/05 01:15:41;;;;;;;23.90;15.43;;;1.60;99.90;;;;;;5049331;28;20045;-82
2023/12/05 01:18:07;;;;;;;24.58;15.48;;;1.20;99.90;;;;;;5039317;28;20064;-81
2023/12/05 01:20:33;;;;;;;23.35;14.95;;;1.20;99.90;;;;;;5069355;28;20131;-81
2023/12/05 01:22:59;;;;;;;22.70;14.52;;;1.70;99.90;;;;;;5061683;28;20444;-79
2023/12/05 01:25:24;;;;;;;27.13;15.55;;;1.20;99.90;;;;;;5048675;28;20075;-81
2023/12/05 01:27:51;;;;;;;23.67;14.55;;;1.20;99.90;;;;;;5049196;28;20061;-81
2023/12/05 01:30:17;;;;;;;22.90;14.30;;;1.90;99.90;;;;;;5061555;28;20074;-82
2023/12/05 01:32:42;;;;;;;24.75;16.35;;;1.30;99.90;;;;;;5069142;28;20056;-80
2023/12/05 01:35:08;;;;;;;24.20;15.35;;;1.20;99.90;;;;;;5060486;28;20047;-81
2023/12/05 01:37:34;;;;;;;26.10;15.85;;;1.20;99.90;;;;;;5068456;28;20059;-80
2023/12/05 01:39:59;;;;;;;25.00;15.23;;;1.20;99.90;;;;;;5067545;28;20047;-80
2023/12/05 01:42:25;;;;;;;23.63;14.50;;;1.20;99.90;;;;;;5067418;28;20084;-81
2023/12/05 01:44:52;;;;;;;24.45;15.20;;;1.20;99.90;;;;;;5057762;28;20052;-81
2023/12/05 01:47:17;;;;;;;25.77;15.45;;;1.20;99.90;;;;;;5049192;28;20048;-81
2023/12/05 01:49:45;;;;;;;23.58;14.90;;;1.20;99.90;;;;;;5049116;28;20045;-81
2023/12/05 01:52:11;;;;;;;25.73;15.13;;;1.20;99.90;;;;;;5032535;28;20045;-80
2023/12/05 01:54:37;;;;;;;26.90;16.40;;;1.60;99.90;;;;;;5052907;28;20047;-81
2023/12/05 01:57:05;;;;;;;23.38;14.27;;;1.20;99.90;;;;;;5068913;28;20053;-81
2023/12/05 01:59:30;;;;;;;23.67;14.45;;;1.20;99.90;;;;;;5064671;28;20045;-81
2023/12/05 02:01:56;;;;;;;24.42;14.77;;;1.20;99.90;;;;;;5048855;28;20049;-81
2023/12/05 02:04:22;;;;;;;27.45;15.80;;;1.20;99.90;;;;;;5062239;28;20048;-79
2023/12/05 02:06:49;;;;;;;24.48;15.02;;;1.20;99.90;;;;;;5068883;28;20579;-82
2023/12/05 02:09:16;;;;;;;28.00;16.27;;;1.20;99.90;;;;;;5069029;28;20056;-81
2023/12/05 02:11:42;;;;;;;26.48;15.52;;;1.20;99.90;;;;;;5068337;28;20048;-80
2023/12/05 02:14:09;;;;;;;26.20;15.77;;;1.20;99.90;;;;;;5064485;28;20123;-81
2023/12/05 02:16:45;;;;;;;25.05;15.23;;;1.10;99.90;;;;;;5066196;28;20123;-80
2023/12/05 02:19:28;;;;;;;25.52;15.10;;;1.10;99.90;;;;;;5066706;28;20044;-81
2023/12/05 02:22:00;;;;;;;26.33;16.23;;;1.10;99.90;;;;;;5054741;28;20072;-80
2023/12/05 02:24:46;;;;;;;24.77;15.00;;;1.20;99.90;;;;;;5066744;28;20083;-81
2023/12/05 02:27:41;;;;;;;28.00;16.92;;;1.10;99.90;;;;;;5054913;28;20041;-80
2023/12/05 02:30:09;;;;;;;25.25;16.30;;;1.10;99.90;;;;;;5054271;28;20072;-81
2023/12/05 02:32:34;;;;;;;25.35;14.85;;;1.10;99.90;;;;;;5061315;28;20060;-80
2023/12/05 02:35:00;;;;;;;23.95;14.05;;;1.10;99.90;;;;;;5068493;28;20037;-80
2023/12/05 02:37:34;;;;;;;26.77;16.13;;;1.10;99.90;;;;;;5067066;28;20044;-80
2023/12/05 02:40:11;;;;;;;26.48;15.63;;;1.10;99.90;;;;;;5067555;28;20052;-80
2023/12/05 02:42:38;;;;;;;25.13;15.60;;;1.10;99.90;;;;;;5063386;28;20041;-81
2023/12/05 02:45:11;;;;;;;26.75;15.93;;;1.10;99.90;;;;;;5058948;28;20053;-81
2023/12/05 02:47:37;;;;;;;23.23;14.45;;;1.10;99.90;;;;;;5060089;28;20041;-81
2023/12/05 02:50:03;;;;;;;28.27;16.55;;;1.10;99.90;;;;;;5068780;28;20563;-80
2023/12/05 02:52:29;;;;;;;26.90;15.30;;;1.10;99.90;;;;;;5069420;28;20662;-81
2023/12/05 02:54:55;;;;;;;24.65;15.40;;;1.40;99.90;;;;;;5072148;28;20121;-81
2023/12/05 02:57:20;;;;;;;25.05;15.60;;;1.10;99.90;;;;;;5072585;28;20044;-82
2023/12/05 02:59:46;;;;;;;22.27;14.80;;;1.00;99.90;;;;;;5068241;28;20106;-81
2023/12/05 03:02:11;;;;;;;26.55;15.88;;;1.00;99.90;;;;;;5052889;28;20059;-80
2023/12/05 03:04:37;;;;;;;25.77;15.55;;;1.00;99.90;;;;;;5071249;28;20565;-81
2023/12/05 03:07:03;;;;;;;28.10;15.77;;;1.10;99.90;;;;;;5053831;28;20052;-82
2023/12/05 03:09:28;;;;;;;26.50;15.20;;;1.00;99.90;;;;;;5062201;28;20411;-81
2023/12/05 03:11:54;;;;;;;25.70;15.23;;;1.00;99.90;;;;;;5060653;28;20074;-81
2023/12/05 03:14:21;;;;;;;26.02;15.90;;;1.10;99.90;;;;;;5063397;28;20108;-80
2023/12/05 03:16:47;;;;;;;27.92;15.82;;;1.00;99.90;;;;;;5070781;28;20052;-81
2023/12/05 03:19:13;;;;;;;26.10;15.52;;;1.00;99.90;;;;;;5072842;28;20056;-81
2023/12/05 03:21:39;;;;;;;25.70;16.27;;;1.00;99.90;;;;;;5069096;28;20045;-81
2023/12/05 03:24:05;;;;;;;25.95;15.07;;;1.00;99.90;;;;;;5052810;28;20045;-80
2023/12/05 03:26:30;;;;;;;27.77;15.80;;;1.00;99.90;;;;;;5057796;28;20484;-81
2023/12/05 03:28:56;;;;;;;29.70;15.80;;;1.00;99.90;;;;;;5072681;28;20098;-81
2023/12/05 03:31:21;;;;;;;29.70;16.15;;;1.00;99.90;;;;;;5053000;28;20084;-81
2023/12/05 03:33:47;;;;;;;26.30;15.98;;;1.00;99.90;;;;;;5048762;28;20098;-81
2023/12/05 03:36:13;;;;;;;26.55;16.35;;;1.00;99.90;;;;;;5072246;28;20114;-80
2023/12/05 03:38:39;;;;;;;26.75;15.93;;;1.00;99.90;;;;;;5073324;28;20487;-81
2023/12/05 03:41:05;;;;;;;23.02;15.52;;;1.00;99.90;;;;;;5072062;28;20098;-81
2023/12/05 03:43:31;;;;;;;27.77;17.02;;;1.00;99.90;;;;;;5068917;28;20075;-81
2023/12/05 03:45:57;;;;;;;27.73;16.77;;;1.70;99.90;;;;;;5071643;28;20522;-81
2023/12/05 03:48:22;;;;;;;27.92;15.90;;;1.00;99.90;;;;;;5052348;28;20057;-80
2023/12/05 03:50:48;;;;;;;26.48;15.52;;;1.50;99.90;;;;;;5052008;28;20135;-81
2023/12/05 03:53:13;;;;;;;26.98;15.55;;;1.00;99.90;;;;;;5058289;28;20710;-80
2023/12/05 03:55:39;;;;;;;25.45;15.88;;;1.00;99.90;;;;;;5069730;28;20048;-81
2023/12/05 03:58:05;;;;;;;28.35;17.17;;;1.00;99.90;;;;;;5070474;28;20048;-81
2023/12/05 04:00:30;;;;;;;25.98;16.20;;;1.90;99.90;;;;;;5071404;28;20400;-82
2023/12/05 04:02:56;;;;;;;26.58;16.65;;;1.10;99.90;;;;;;5070774;28;20059;-81
2023/12/05 04:05:22;;;;;;;24.95;15.98;;;1.00;99.90;;;;;;5067138;28;20040;-80
2023/12/05 04:07:48;;;;;;;26.60;16.45;;;1.00;99.90;;;;;;5065712;28;20044;-81
2023/12/05 04:10:13;;;;;;;29.42;17.33;;;1.00;99.90;;;;;;5070169;28;20060;-81
2023/12/05 04:12:39;;;;;;;27.38;17.00;;;1.00;99.90;;;;;;5070441;28;20055;-81
2023/12/05 04:15:06;;;;;;;27.05;16.58;;;1.00;99.90;;;;;;5050361;28;20044;-80
2023/12/05 04:17:32;;;;;;;30.05;17.27;;;1.00;99.90;;;;;;5050251;28;20076;-78
2023/12/05 04:19:58;;;;;;;29.08;16.77;;;1.00;99.90;;;;;;5051086;28;20400;-80
2023/12/05 04:22:24;;;;;;;27.77;16.48;;;1.00;99.90;;;;;;5061823;28;20076;-80
2023/12/05 04:24:49;;;;;;;28.75;16.75;;;1.00;99.90;;;;;;5070231;28;20052;-79
2023/12/05 04:27:15;;;;;;;27.83;16.85;;;1.00;99.90;;;;;;5060037;28;20102;-79
2023/12/05 04:29:42;;;;;;;30.52;17.30;;;1.60;99.90;;;;;;5061874;28;20076;-80
2023/12/05 04:32:08;;;;;;;27.77;16.25;;;1.00;99.90;;;;;;5062988;28;20044;-80
2023/12/05 04:34:35;;;;;;;29.08;16.77;;;1.00;99.90;;;;;;5054103;28;20063;-79
2023/12/05 04:37:00;;;;;;;28.50;17.23;;;1.00;99.90;;;;;;5069770;28;20450;-79
2023/12/05 04:39:26;;;;;;;29.90;17.58;;;1.00;99.90;;;;;;5070852;28;20051;-80
2023/12/05 04:41:51;;;;;;;31.27;17.65;;;1.00;99.90;;;;;;5070718;28;20086;-80
2023/12/05 04:44:17;;;;;;;27.42;16.20;;;1.80;99.90;;;;;;5054967;28;20049;-80
2023/12/05 04:46:43;;;;;;;31.80;17.80;;;1.00;99.90;;;;;;5058471;28;20591;-79
2023/12/05 04:49:08;;;;;;;27.92;16.20;;;1.10;99.90;;;;;;5070438;28;20049;-81
2023/12/05 04:51:34;;;;;;;28.25;16.33;;;1.00;99.90;;;;;;5071115;28;20043;-81
2023/12/05 04:54:00;;;;;;;27.33;16.20;;;1.00;99.90;;;;;;5071550;28;20070;-80
2023/12/05 04:56:27;;;;;;;28.95;17.27;;;1.00;99.90;;;;;;5062718;28;20098;-82
2023/12/05 04:58:52;;;;;;;30.80;17.63;;;1.00;99.90;;;;;;5069919;28;20044;-80
2023/12/05 05:01:18;;;;;;;29.10;17.55;;;1.00;99.90;;;;;;5050796;28;20447;-81
2023/12/05 05:03:44;;;;;;;28.52;16.70;;;1.00;99.90;;;;;;5050330;28;20057;-80
2023/12/05 05:06:10;;;;;;;29.17;17.42;;;1.10;99.90;;;;;;5050296;28;20548;-81
2023/12/05 05:08:36;;;;;;;32.00;18.13;;;1.00;99.90;;;;;;5050281;28;20350;-81
2023/12/05 05:11:01;;;;;;;31.75;19.45;;;1.00;99.90;;;;;;5050382;28;20051;-81
2023/12/05 05:13:27;;;;;;;29.10;17.23;;;1.00;99.90;;;;;;5058924;28;20052;-81
2023/12/05 05:15:53;;;;;;;29.83;17.13;;;1.00;99.90;;;;;;5063474;28;20049;-81
2023/12/05 05:18:19;;;;;;;33.30;18.60;;;1.00;99.90;;;;;;5058474;28;20091;-80
2023/12/05 05:20:44;;;;;;;32.40;19.45;;;1.00;99.90;;;;;;5069904;28;20087;-79
2023/12/05 05:23:11;;;;;;;33.08;18.17;;;1.00;99.90;;;;;;5069648;28;20127;-81
2023/12/05 05:25:36;;;;;;;29.80;18.60;;;1.00;99.90;;;;;;5060408;28;20041;-81
2023/12/05 05:28:02;;;;;;;34.55;18.67;;;1.00;99.90;;;;;;5049671;28;20049;-80
2023/12/05 05:30:28;;;;;;;33.17;18.88;;;1.00;99.90;;;;;;5049863;28;20101;-80
2023/12/05 05:32:53;;;;;;;30.75;17.60;;;1.00;99.90;;;;;;5068590;28;20134;-81
2023/12/05 05:35:19;;;;;;;33.67;18.52;;;1.00;99.90;;;;;;5056353;28;20036;-81
2023/12/05 05:37:45;;;;;;;39.42;19.20;;;1.00;99.90;;;;;;5050081;28;20048;-81
2023/12/05 05:40:11;;;;;;;34.00;18.63;;;1.00;99.90;;;;;;5033383;28;20649;-81
2023/12/05 05:42:36;;;;;;;32.83;17.92;;;1.00;99.90;;;;;;5051956;28;20100;-81
2023/12/05 05:45:04;;;;;;;30.77;18.27;;;1.00;99.90;;;;;;5069673;28;20132;-80
2023/12/05 05:47:31;;;;;;;29.50;18.63;;;1.00;99.90;;;;;;5060479;28;20051;-82
2023/12/05 05:49:57;;;;;;;33.03;18.60;;;1.00;99.90;;;;;;5049865;28;20495;-81
2023/12/05 05:52:23;;;;;;;31.52;18.17;;;1.00;99.90;;;;;;5060263;28;20049;-80
2023/12/05 05:54:51;;;;;;;33.88;18.83;;;1.00;99.90;;;;;;5049722;28;20055;-80
2023/12/05 05:57:17;;;;;;;34.30;18.80;;;1.00;99.90;;;;;;5057636;28;20488;-82
2023/12/05 05:59:43;;;;;;;31.38;17.92;;;1.30;99.90;;;;;;5049813;28;20048;-80
2023/12/05 06:02:09;;;;;;;32.75;18.88;;;1.00;99.90;;;;;;5058373;28;20040;-81
2023/12/05 06:04:44;;;;;;;33.13;18.92;;;1.40;99.90;;;;;;5053953;28;20400;-80
2023/12/05 06:07:09;;;;;;;29.38;17.40;;;1.00;99.90;;;;;;5057595;28;20045;-82
2023/12/05 06:09:35;;;;;;;33.90;19.38;;;1.00;99.90;;;;;;5060944;28;20051;-80
2023/12/05 06:12:04;;;;;;;32.30;17.55;;;1.00;99.90;;;;;;5054801;28;20602;-82
2023/12/05 06:14:30;;;;;;;30.10;17.55;;;1.00;99.90;;;;;;5052664;28;20048;-81
2023/12/05 06:16:55;;;;;;;30.25;17.98;;;1.00;99.90;;;;;;5049542;28;20056;-80
2023/12/05 06:19:21;;;;;;;33.78;18.48;;;1.00;99.90;;;;;;5066474;28;20091;-80
2023/12/05 06:21:47;;;;;;;31.83;18.00;;;1.00;99.90;;;;;;5067733;28;20033;-79
2023/12/05 06:24:12;;;;;;;30.52;17.42;;;1.00;99.90;;;;;;5058776;28;20036;-79
2023/12/05 06:26:38;;;;;;;31.38;18.48;;;1.00;99.90;;;;;;5044166;28;20414;-79
2023/12/05 06:29:05;;;;;;;33.10;18.35;;;2.10;99.90;;;;;;5073869;28;20049;-79
2023/12/05 06:31:31;;;;;;;30.63;18.40;;;1.00;99.90;;;;;;5063346;28;20053;-80
2023/12/05 06:33:58;;;;;;;32.13;18.23;;;1.00;99.90;;;;;;5053986;28;20052;-79
2023/12/05 06:36:24;;;;;;;28.52;16.25;;;1.00;99.90;;;;;;5060967;28;20415;-80
2023/12/05 06:38:50;;;;;;;30.42;16.77;;;1.00;99.90;;;;;;5062587;28;20052;-79
2023/12/05 06:41:15;;;;;;;31.58;17.30;;;1.00;99.90;;;;;;5062168;28;20041;-80
2023/12/05 06:43:41;;;;;;;31.23;18.20;;;1.00;99.90;;;;;;5058674;28;20091;-80
2023/12/05 06:46:07;;;;;;;34.17;19.13;;;1.30;99.90;;;;;;5063485;28;20044;-79
2023/12/05 06:48:33;;;;;;;33.38;18.95;;;1.00;99.90;;;;;;5061538;28;20040;-81
2023/12/05 06:50:58;;;;;;;34.63;18.98;;;1.00;99.90;;;;;;5057835;28;20186;-80
2023/12/05 06:53:24;;;;;;;28.52;15.65;;;1.00;99.90;;;;;;5066288;28;20051;-84
2023/12/05 06:55:50;;;;;;;34.25;19.30;;;1.00;99.90;;;;;;5053557;28;20130;-81
2023/12/05 06:58:15;;;;;;;33.53;18.08;;;1.00;99.90;;;;;;5052648;28;20049;-79
2023/12/05 07:00:42;;;;;;;34.08;18.77;;;1.00;99.90;;;;;;5051969;28;20052;-81
2023/12/05 07:03:07;;;;;;;35.28;18.10;;;1.00;99.90;;;;;;5052699;28;20079;-79
2023/12/05 07:05:33;;;;;;;35.53;18.80;;;1.00;99.90;;;;;;5058377;28;20478;-79
2023/12/05 07:08:00;;;;;;;37.30;21.13;;;1.00;99.90;;;;;;5063886;28;20060;-80
2023/12/05 07:10:27;;;;;;;36.22;19.10;;;1.00;99.90;;;;;;5062487;28;20051;-81
2023/12/05 07:12:52;;;;;;;37.05;20.35;;;1.00;99.90;;;;;;5063848;28;20738;-80
2023/12/05 07:15:18;;;;;;;30.38;17.15;;;2.10;99.90;;;;;;5061534;28;20059;-80
2023/12/05 07:17:44;;;;;;;31.70;17.95;;;1.00;99.90;;;;;;5059313;28;20132;-79
2023/12/05 07:20:10;;;;;;;36.65;19.23;;;1.00;99.90;;;;;;5072723;28;20453;-77
2023/12/05 07:22:36;;;;;;;36.75;19.15;;;1.00;99.90;;;;;;5060196;28;20037;-79
2023/12/05 07:25:01;;;;;;;37.50;19.48;;;1.00;99.90;;;;;;5054935;28;20102;-80
2023/12/05 07:27:27;;;;;;;36.17;19.17;;;1.00;99.90;;;;;;5069091;28;20126;-80
2023/12/05 07:29:53;;;;;;;33.08;17.70;;;1.00;99.90;;;;;;5072067;28;20091;-79
2023/12/05 07:32:19;;;;;;;33.45;19.10;;;1.00;99.90;;;;;;5068377;28;20544;-79
2023/12/05 07:34:45;;;;;;;36.00;19.98;;;1.00;99.90;;;;;;5063436;28;20514;-77
2023/12/05 07:37:11;;;;;;;28.65;17.20;;;2.20;99.90;;;;;;5069265;28;20056;-79
2023/12/05 07:39:37;;;;;;;34.25;19.08;;;1.00;99.90;;;;;;5053481;28;20039;-77
2023/12/05 07:42:02;;;;;;;35.85;19.40;;;1.00;99.90;;;;;;5063905;28;20795;-77
2023/12/05 07:44:28;;;;;;;32.35;19.35;;;1.00;99.90;;;;;;5055354;28;20060;-78
2023/12/05 07:46:54;;;;;;;33.72;19.10;;;1.00;99.90;;;;;;5051605;28;20049;-77
2023/12/05 07:49:20;;;;;;;34.75;18.25;;;1.00;99.90;;;;;;5051172;28;20048;-79
2023/12/05 07:51:48;;;;;;;31.52;18.27;;;1.40;99.90;;;;;;5050790;28;20049;-77
2023/12/05 07:54:13;;;;;;;33.42;18.77;;;1.00;99.90;;;;;;5051639;28;20055;-77
2023/12/05 07:56:39;;;;;;;32.95;17.70;;;1.00;99.90;;;;;;5050692;28;20136;-77
2023/12/05 07:59:04;;;;;;;33.17;17.85;;;1.00;99.90;;;;;;5051566;28;20041;-77
2023/12/05 08:01:30;;;;;;;35.05;18.58;;;1.00;99.90;;;;;;5051292;28;20037;-77
2023/12/05 08:03:57;;;;;;;34.95;18.85;;;1.00;99.90;;;;;;5062426;28;20052;-77
2023/12/05 08:06:24;;;;;;;35.05;19.20;;;1.00;99.90;;;;;;5062143;28;20048;-78
2023/12/05 08:08:50;;;;;;;33.88;18.15;;;1.50;99.90;;;;;;5069479;28;20105;-79
2023/12/05 08:11:16;;;;;;;31.20;17.70;;;1.00;99.90;;;;;;5070272;28;20048;-78
2023/12/05 08:13:42;;;;;;;33.17;17.85;;;1.00;99.90;;;;;;5071550;28;20045;-76
2023/12/05 08:16:08;;;;;;;34.00;18.23;;;1.00;99.90;;;;;;5071744;28;20056;-78
2023/12/05 08:18:34;;;;;;;34.97;19.83;;;1.00;99.90;;;;;;5070845;28;20069;-78
2023/12/05 08:20:59;;;;;;;35.85;19.42;;;1.50;99.90;;;;;;5064630;28;20064;-76
2023/12/05 08:23:25;;;;;;;33.10;17.73;;;1.00;99.90;;;;;;5061297;28;20123;-77
2023/12/05 08:25:51;;;;;;;31.35;17.65;;;1.00;99.90;;;;;;5049973;28;20043;-78
2023/12/05 08:28:16;;;;;;;32.92;18.35;;;1.10;99.90;;;;;;5050234;28;20452;-77
2023/12/05 08:30:42;;;;;;;33.47;18.08;;;1.10;99.90;;;;;;5049565;28;20040;-77
2023/12/05 08:33:08;;;;;;;33.17;17.63;;;1.10;99.90;;;;;;5069997;28;20055;-78
2023/12/05 08:35:34;;;;;;;34.33;18.10;;;1.10;99.90;;;;;;5066931;28;20132;-79
2023/12/05 08:38:00;;;;;;;32.88;19.92;;;1.10;99.90;;;;;;5053409;28;20148;-77
2023/12/05 08:40:26;;;;;;;33.13;18.92;;;1.10;99.90;;;;;;5051561;28;20049;-77
2023/12/05 08:42:51;;;;;;;31.52;17.90;;;1.10;99.90;;;;;;5062378;28;20044;-78
2023/12/05 08:45:18;;;;;;;32.58;18.17;;;1.10;99.90;;;;;;5060784;28;20048;-77
2023/12/05 08:47:44;;;;;;;36.40;18.88;;;1.60;99.90;;;;;;5068075;28;20110;-78
2023/12/05 08:50:09;;;;;;;30.00;17.83;;;1.10;99.90;;;;;;5070571;28;20048;-78
2023/12/05 08:52:35;;;;;;;33.25;19.30;;;1.60;99.90;;;;;;5070902;28;20040;-77
2023/12/05 08:55:01;;;;;;;36.70;20.67;;;1.10;99.90;;;;;;5070581;28;20443;-77
2023/12/05 08:57:27;;;;;;;35.28;19.00;;;1.10;99.90;;;;;;5070763;28;20044;-77
2023/12/05 08:59:53;;;;;;;33.60;19.23;;;1.10;99.90;;;;;;5069944;28;20048;-77
2023/12/05 09:02:19;;;;;;;30.50;17.50;;;1.10;99.90;;;;;;5056145;28;20449;-78
2023/12/05 09:04:45;;;;;;;37.42;20.33;;;1.10;99.90;;;;;;5050630;28;20122;-77
2023/12/05 09:07:10;;;;;;;33.05;18.02;;;1.70;99.90;;;;;;5059935;28;20451;-77
2023/12/05 09:09:36;;;;;;;32.65;18.15;;;1.20;99.90;;;;;;5070331;28;20354;-77
2023/12/05 09:12:02;;;;;;;38.65;19.45;;;1.20;99.90;;;;;;5070346;28;20044;-76
2023/12/05 09:14:28;;;;;;;35.80;18.88;;;1.20;99.90;;;;;;5069587;28;20057;-77
2023/12/05 09:16:54;;;;;;;36.92;19.45;;;1.80;99.90;;;;;;5042901;28;20419;-77
2023/12/05 09:19:20;;;;;;;36.80;21.23;;;1.20;99.90;;;;;;5069797;28;20049;-77
2023/12/05 09:21:46;;;;;;;34.22;18.63;;;1.50;99.90;;;;;;5070019;28;20051;-76
2023/12/05 09:24:11;;;;;;;34.42;19.85;;;1.90;99.90;;;;;;5070418;28;20044;-77
2023/12/05 09:26:37;;;;;;;32.53;18.10;;;1.20;99.90;;;;;;5069988;28;20097;-77
2023/12/05 09:29:03;;;;;;;34.17;18.75;;;1.20;99.90;;;;;;5069469;28;20087;-78
2023/12/05 09:31:30;;;;;;;29.52;17.17;;;1.20;99.90;;;;;;5064344;28;20072;-78
2023/12/05 09:33:56;;;;;;;31.55;17.33;;;1.20;99.90;;;;;;5044163;28;20040;-77
2023/12/05 09:36:22;;;;;;;33.78;18.73;;;1.20;99.90;;;;;;5064831;28;20044;-76
2023/12/05 09:38:47;;;;;;;29.90;16.73;;;1.20;99.90;;;;;;5071494;28;20851;-77
2023/12/05 09:41:15;;;;;;;32.83;18.40;;;1.30;99.90;;;;;;5071474;28;20118;-78
2023/12/05 09:43:42;;;;;;;35.72;20.13;;;1.30;99.90;;;;;;5061411;28;20528;-78
2023/12/05 09:46:10;;;;;;;32.25;18.40;;;1.30;99.90;;;;;;5063284;28;20081;-77
2023/12/05 09:49:04;;;;;;;34.70;18.85;;;1.30;99.90;;;;;;5049778;28;20073;-77
2023/12/05 09:51:31;;;;;;;31.80;17.38;;;1.70;99.90;;;;;;5049447;28;20084;-77
2023/12/05 09:53:58;;;;;;;33.97;19.58;;;1.30;99.90;;;;;;5049982;28;20423;-77
2023/12/05 09:56:25;;;;;;;32.35;17.98;;;1.30;99.90;;;;;;5068120;28;20512;-77
2023/12/05 09:58:53;;;;;;;36.72;18.25;;;1.80;99.90;;;;;;5051481;28;20051;-78
2023/12/05 10:01:21;;;;;;;30.45;18.10;;;1.30;99.90;;;;;;5055989;28;20503;-78
2023/12/05 10:03:54;;;;;;;33.70;19.23;;;1.60;99.90;;;;;;5065209;28;20056;-77
2023/12/05 10:06:20;;;;;;;32.80;18.53;;;1.40;99.90;;;;;;5055503;28;20110;-77
2023/12/05 10:08:51;;;;;;;28.27;16.92;;;1.40;99.90;;;;;;5063585;28;20048;-77
2023/12/05 10:11:20;;;;;;;31.90;17.73;;;1.40;99.90;;;;;;5073607;28;20043;-77
2023/12/05 10:13:46;;;;;;;35.95;19.65;;;1.40;99.90;;;;;;5060223;28;20049;-77
2023/12/05 10:16:13;;;;;;;32.00;17.90;;;2.40;99.90;;;;;;5070118;28;20373;-78
2023/12/05 10:18:40;;;;;;;31.10;17.45;;;1.80;99.90;;;;;;5073105;28;20064;-77
2023/12/05 10:21:05;;;;;;;33.42;18.67;;;1.50;99.90;;;;;;5073140;28;20045;-78
2023/12/05 10:23:32;;;;;;;28.40;17.23;;;1.50;99.90;;;;;;5071548;28;20044;-79
2023/12/05 10:25:58;;;;;;;30.25;16.88;;;1.40;99.90;;;;;;5059981;28;20055;-79
2023/12/05 10:28:25;;;;;;;31.48;18.13;;;1.50;99.90;;;;;;5072916;28;20399;-79
2023/12/05 10:30:51;;;;;;;33.95;19.13;;;2.20;99.90;;;;;;5070350;28;20491;-79
2023/12/05 10:33:17;;;;;;;31.02;18.30;;;1.50;99.90;;;;;;5072673;28;20048;-79
2023/12/05 10:35:45;;;;;;;33.83;18.52;;;1.50;99.90;;;;;;5066076;28;20064;-79
2023/12/05 10:38:13;;;;;;;32.22;18.70;;;1.50;99.90;;;;;;5073444;28;20070;-78
2023/12/05 10:41:08;;;;;;;33.83;19.23;;;1.50;99.90;;;;;;5065274;28;20056;-79
2023/12/05 10:43:34;;;;;;;33.60;18.40;;;1.50;99.90;;;;;;5053117;28;20057;-78
2023/12/05 10:46:03;;;;;;;29.17;16.70;;;1.50;99.90;;;;;;5058118;28;20106;-78
2023/12/05 10:48:30;;;;;;;30.13;17.65;;;1.50;99.90;;;;;;5053413;28;20040;-78
2023/12/05 10:50:59;;;;;;;30.48;18.38;;;1.60;99.90;;;;;;5061038;28;20043;-77
2023/12/05 10:53:25;;;;;;;34.53;19.75;;;1.50;99.90;;;;;;5059516;28;20052;-79
2023/12/05 10:55:51;;;;;;;34.10;19.55;;;1.50;99.90;;;;;;5069157;28;20143;-79
2023/12/05 10:58:16;;;;;;;31.95;18.85;;;1.50;99.90;;;;;;5072760;28;20547;-78
2023/12/05 11:00:43;;;;;;;31.02;17.92;;;2.20;99.90;;;;;;5071034;28;20036;-78
2023/12/05 11:03:10;;;;;;;33.40;17.90;;;1.50;99.90;;;;;;5073231;28;20403;-78
2023/12/05 11:05:36;;;;;;;34.53;18.23;;;1.60;99.90;;;;;;5072964;28;20052;-78
2023/12/05 11:08:04;;;;;;;33.65;19.13;;;1.60;99.90;;;;;;5072431;28;20557;-77
2023/12/05 11:10:29;;;;;;;34.35;18.17;;;1.60;99.90;;;;;;5072182;28;20150;-78
2023/12/05 11:12:58;;;;;;;36.25;19.15;;;1.70;99.90;;;;;;5072408;28;20499;-78
2023/12/05 11:15:28;;;;;;;35.90;18.23;;;1.60;99.90;;;;;;5071831;28;20139;-78
2023/12/05 11:17:59;;;;;;;33.10;18.50;;;2.80;99.90;;;;;;5072047;28;20060;-78
2023/12/05 11:20:43;;;;;;;31.75;19.00;;;1.60;99.90;;;;;;5071965;28;20575;-77
2023/12/05 11:23:56;;;;;;;33.17;19.07;;;1.60;99.90;;;;;;5070984;28;20124;-78
2023/12/05 11:26:34;;;;;;;33.15;18.90;;;1.60;99.90;;;;;;5054269;28;20053;-78
2023/12/05 11:29:24;;;;;;;35.60;19.88;;;1.60;99.90;;;;;;5072044;28;20583;-77
2023/12/05 11:32:12;;;;;;;34.38;18.65;;;1.60;99.90;;;;;;5068426;28;20056;-80
2023/12/05 11:34:56;;;;;;;33.75;18.50;;;1.50;99.90;;;;;;5071888;28;20056;-78
2023/12/05 11:37:46;;;;;;;37.10;20.20;;;1.60;99.90;;;;;;5067679;28;20456;-81
2023/12/05 11:40:12;;;;;;;35.58;18.83;;;1.50;99.90;;;;;;5054859;28;20045;-78
2023/12/05 11:43:05;;;;;;;32.10;17.83;;;1.50;99.90;;;;;;5040062;28;20094;-78
2023/12/05 11:45:31;;;;;;;36.22;20.25;;;1.50;99.90;;;;;;5053794;28;20124;-78
2023/12/05 11:48:01;;;;;;;40.40;20.30;;;1.60;99.90;;;;;;5055329;28;20044;-78
2023/12/05 11:50:42;;;;;;;39.28;21.40;;;1.60;99.90;;;;;;5073989;28;20391;-77
2023/12/05 11:53:09;;;;;;;38.78;21.35;;;1.60;99.90;;;;;;5081980;28;20085;-77
2023/12/05 11:55:35;;;;;;;35.17;18.02;;;1.60;99.90;;;;;;5072555;28;20098;-79
2023/12/05 11:58:01;;;;;;;37.70;20.70;;;1.60;99.90;;;;;;5064791;28;20045;-78
2023/12/05 12:00:27;;;;;;;36.15;21.08;;;1.60;99.90;;;;;;5063634;28;20543;-78
2023/12/05 12:02:57;;;;;;;37.47;20.95;;;1.90;99.90;;;;;;5062867;28;20407;-79
2023/12/05 12:05:23;;;;;;;34.88;18.60;;;1.60;99.90;;;;;;5071083;28;20128;-79
2023/12/05 12:07:52;;;;;;;34.80;19.42;;;1.60;99.90;;;;;;5057237;28;20124;-83
2023/12/05 12:10:19;;;;;;;32.53;19.17;;;1.60;99.90;;;;;;5068941;28;20083;-78
2023/12/05 12:12:50;;;;;;;39.97;20.92;;;1.60;99.90;;;;;;5057495;28;20049;-79
2023/12/05 12:15:19;;;;;;;37.67;20.02;;;1.60;99.90;;;;;;5059291;28;20496;-77
2023/12/05 12:17:45;;;;;;;39.85;19.77;;;1.60;99.90;;;;;;5063543;28;20516;-80
2023/12/05 12:20:12;;;;;;;39.67;21.40;;;1.60;99.90;;;;;;5059303;28;20515;-78
2023/12/05 12:22:38;;;;;;;37.00;20.25;;;1.50;99.90;;;;;;5051604;28;20075;-79
2023/12/05 12:25:13;;;;;;;40.08;21.80;;;1.50;99.90;;;;;;5052033;28;20406;-79
2023/12/05 12:27:43;;;;;;;39.25;21.27;;;1.60;99.90;;;;;;5053037;28;20423;-79
2023/12/05 12:30:13;;;;;;;36.33;20.27;;;2.00;99.90;;;;;;5055369;28;20063;-77
2023/12/05 12:32:52;;;;;;;36.30;20.60;;;1.50;99.90;;;;;;5064065;28;20048;-78
2023/12/05 12:35:20;;;;;;;36.92;19.98;;;1.50;99.90;;;;;;5062488;28;20124;-78